createdAt,value
2023-01-09T00:06:54.118Z,1.30
2023-01-09T00:16:55.652Z,1.48
2023-01-09T00:26:56.953Z,1.00
2023-01-09T00:36:58.256Z,0.70
2023-01-09T00:46:59.533Z,0.88
2023-01-09T00:57:00.813Z,0.90
2023-01-09T01:07:20.873Z,0.70
2023-01-09T01:17:22.160Z,1.15
2023-01-09T01:27:23.407Z,0.80
2023-01-09T01:37:24.736Z,0.80
2023-01-09T01:47:26.049Z,0.63
2023-01-09T01:57:27.312Z,0.80
2023-01-09T02:07:28.668Z,0.90
2023-01-09T02:17:29.938Z,0.70
2023-01-09T02:27:31.281Z,0.88
2023-01-09T02:37:32.487Z,0.98
2023-01-09T02:47:33.761Z,1.10
2023-01-09T02:57:35.014Z,0.85
2023-01-09T03:07:36.275Z,0.80
2023-01-09T03:17:37.463Z,0.55
2023-01-09T03:27:40.065Z,0.60
2023-01-09T03:37:41.329Z,0.50
2023-01-09T03:47:42.556Z,0.50
2023-01-09T03:57:43.792Z,0.50
2023-01-09T04:07:45.201Z,0.50
2023-01-09T04:17:46.447Z,0.68
2023-01-09T04:27:49.360Z,1.15
2023-01-09T04:37:50.669Z,0.60
2023-01-09T04:47:51.934Z,0.50
2023-01-09T04:57:53.232Z,0.93
2023-01-09T05:07:54.477Z,0.73
2023-01-09T05:17:55.729Z,0.80
2023-01-09T05:27:56.963Z,1.10
2023-01-09T05:37:58.204Z,1.02
2023-01-09T05:47:59.425Z,1.77
2023-01-09T05:58:00.643Z,1.35
2023-01-09T06:08:02.070Z,1.25
2023-01-09T06:18:04.577Z,0.70
2023-01-09T06:28:05.829Z,1.13
2023-01-09T06:38:07.145Z,0.73
2023-01-09T06:48:08.447Z,0.93
2023-01-09T06:58:09.728Z,0.85
2023-01-09T07:08:11.028Z,0.80
2023-01-09T07:18:12.360Z,0.80
2023-01-09T07:28:13.588Z,0.93
2023-01-09T07:38:14.824Z,1.10
2023-01-09T07:48:16.075Z,1.17
2023-01-09T07:58:17.367Z,1.27
2023-01-09T08:08:18.725Z,1.40
2023-01-09T08:18:19.960Z,2.22
2023-01-09T08:28:21.175Z,1.15
2023-01-09T08:38:22.457Z,1.20
2023-01-09T08:48:23.716Z,1.02
2023-01-09T08:58:24.951Z,0.88
2023-01-09T09:08:26.242Z,0.93
2023-01-09T09:18:27.533Z,1.00
2023-01-09T09:28:28.785Z,1.02
2023-01-09T09:38:30.041Z,0.70
2023-01-09T09:48:31.321Z,0.90
2023-01-09T09:58:32.638Z,0.93
2023-01-09T10:08:33.955Z,0.88
2023-01-09T10:18:35.210Z,1.00
2023-01-09T10:28:36.445Z,0.85
2023-01-09T10:38:37.700Z,1.08
2023-01-09T10:48:38.923Z,0.60
2023-01-09T10:58:40.154Z,0.80
2023-01-09T11:08:42.164Z,1.38
2023-01-09T11:18:43.445Z,1.25
2023-01-09T11:28:44.678Z,2.58
2023-01-09T11:38:45.893Z,1.40
2023-01-09T11:48:48.303Z,1.10
2023-01-09T11:58:49.571Z,1.45
2023-01-09T12:08:50.838Z,1.20
2023-01-09T12:18:52.090Z,1.00
2023-01-09T12:28:53.389Z,1.40
2023-01-09T12:38:54.641Z,0.90
2023-01-09T12:48:55.880Z,1.52
2023-01-09T12:58:57.155Z,0.93
2023-01-09T13:08:58.591Z,0.77
2023-01-09T13:18:59.821Z,0.77
2023-01-09T13:29:03.183Z,0.60
2023-01-09T13:39:04.424Z,0.80
2023-01-09T13:49:05.717Z,0.70
2023-01-09T13:59:09.336Z,1.25
2023-01-09T14:09:10.645Z,0.70
2023-01-09T14:19:11.877Z,1.23
2023-01-09T14:29:13.166Z,0.60
2023-01-09T14:39:14.563Z,1.15
2023-01-09T14:49:16.003Z,0.82
2023-01-09T14:59:17.336Z,1.15
2023-01-09T15:09:18.610Z,0.95
2023-01-09T15:19:19.874Z,1.50
2023-01-09T15:29:21.575Z,1.58
2023-01-09T15:39:22.840Z,1.50
2023-01-09T15:49:24.083Z,1.52
2023-01-09T15:59:26.913Z,2.20
2023-01-09T16:09:28.314Z,2.75
2023-01-09T16:19:29.528Z,4.32
2023-01-09T16:29:30.780Z,3.85
2023-01-09T16:39:31.986Z,2.10
2023-01-09T16:49:33.617Z,1.67
2023-01-09T16:59:34.820Z,1.80
2023-01-09T17:09:37.548Z,2.13
2023-01-09T17:19:38.802Z,2.63
2023-01-09T17:29:40.126Z,2.92
2023-01-09T17:39:41.427Z,2.30
2023-01-09T17:49:42.728Z,1.80
2023-01-09T17:59:44.866Z,2.15
2023-01-09T18:09:46.260Z,1.80
2023-01-09T18:19:47.776Z,2.00
2023-01-09T18:29:49.484Z,2.45
2023-01-09T18:39:50.843Z,2.65
2023-01-09T18:49:52.098Z,2.83
2023-01-09T18:59:53.347Z,1.90
2023-01-09T19:09:54.597Z,2.30
2023-01-09T19:19:55.833Z,2.00
2023-01-09T19:29:57.116Z,1.60
2023-01-09T19:39:58.399Z,2.08
2023-01-09T19:49:59.644Z,1.90
2023-01-09T20:00:00.905Z,3.28
2023-01-09T20:10:02.113Z,2.42
2023-01-09T20:20:03.358Z,4.78
2023-01-09T20:30:04.593Z,3.50
2023-01-09T20:40:05.825Z,3.35
2023-01-09T20:50:10.192Z,2.70
2023-01-09T21:00:11.689Z,2.95
2023-01-09T21:10:13.133Z,3.10
2023-01-09T21:20:14.687Z,2.88
2023-01-09T21:30:16.065Z,2.05
2023-01-09T21:40:17.847Z,2.00
2023-01-09T21:50:19.361Z,1.30
2023-01-09T22:00:20.735Z,0.98
2023-01-09T22:10:33.939Z,1.20
2023-01-09T22:20:35.561Z,0.60
2023-01-09T22:30:37.581Z,0.70
2023-01-09T22:40:38.977Z,0.88
2023-01-09T22:50:40.462Z,0.85
2023-01-09T23:00:41.910Z,0.95
2023-01-09T23:10:43.305Z,0.60
2023-01-09T23:20:44.597Z,0.95
2023-01-09T23:30:45.953Z,1.02
2023-01-09T23:40:47.185Z,1.13
2023-01-09T23:50:48.453Z,0.98
